createdAt,value
2018-12-05T00:01:30.771Z,17.00
2018-12-05T00:03:59.924Z,17.33
2018-12-05T00:06:35.670Z,16.97
2018-12-05T00:09:07.540Z,17.03
2018-12-05T00:11:38.419Z,16.87
2018-12-05T00:14:07.921Z,16.53
2018-12-05T00:16:37.002Z,17.40
2018-12-05T00:19:06.373Z,16.57
2018-12-05T00:21:35.595Z,16.03
2018-12-05T00:24:04.995Z,16.00
2018-12-05T00:26:34.110Z,15.93
2018-12-05T00:29:03.375Z,16.13
2018-12-05T00:31:32.493Z,17.00
2018-12-05T00:34:01.558Z,15.97
2018-12-05T00:36:30.640Z,15.67
2018-12-05T00:38:59.865Z,16.47
2018-12-05T00:41:28.916Z,15.47
2018-12-05T00:43:57.962Z,15.07
2018-12-05T00:46:27.835Z,16.00
2018-12-05T00:48:57.249Z,16.03
2018-12-05T00:51:26.294Z,14.90
2018-12-05T00:53:55.419Z,16.67
2018-12-05T00:56:24.806Z,15.37
2018-12-05T00:58:53.966Z,15.57
2018-12-05T01:01:25.007Z,15.17
2018-12-05T01:03:54.076Z,14.43
2018-12-05T01:06:23.191Z,15.13
2018-12-05T01:08:52.253Z,14.37
2018-12-05T01:11:22.251Z,15.40
2018-12-05T01:13:51.296Z,14.40
2018-12-05T01:16:20.409Z,15.23
2018-12-05T01:18:49.453Z,15.93
2018-12-05T01:21:19.019Z,14.73
2018-12-05T01:23:48.240Z,14.27
2018-12-05T01:26:17.386Z,13.93
2018-12-05T01:28:46.631Z,14.13
2018-12-05T01:31:15.830Z,14.57
2018-12-05T01:33:44.982Z,13.67
2018-12-05T01:36:14.021Z,14.13
2018-12-05T01:38:43.095Z,14.30
2018-12-05T01:41:12.313Z,14.63
2018-12-05T01:43:47.349Z,16.47
2018-12-05T01:46:16.392Z,14.67
2018-12-05T01:48:45.639Z,13.87
2018-12-05T01:51:14.858Z,16.03
2018-12-05T01:53:44.110Z,15.37
2018-12-05T01:56:13.335Z,14.67
2018-12-05T01:58:42.752Z,14.17
2018-12-05T02:01:12.039Z,14.67
2018-12-05T02:03:41.340Z,15.30
2018-12-05T02:06:10.480Z,16.30
2018-12-05T02:08:39.725Z,14.87
2018-12-05T02:11:08.761Z,16.07
2018-12-05T02:13:37.830Z,16.60
2018-12-05T02:16:07.114Z,15.40
2018-12-05T02:18:36.186Z,15.00
2018-12-05T02:21:05.454Z,14.87
2018-12-05T02:23:35.077Z,15.17
2018-12-05T02:26:04.641Z,15.67
2018-12-05T02:28:33.846Z,15.93
2018-12-05T02:31:03.148Z,16.33
2018-12-05T02:33:32.183Z,15.23
2018-12-05T02:36:02.108Z,14.97
2018-12-05T02:38:31.345Z,14.70
2018-12-05T02:41:00.510Z,14.87
2018-12-05T02:43:29.727Z,14.83
2018-12-05T02:45:58.763Z,14.90
2018-12-05T02:48:27.831Z,15.07
2018-12-05T02:50:56.882Z,14.83
2018-12-05T02:53:25.950Z,14.60
2018-12-05T02:55:55.006Z,14.20
2018-12-05T02:58:24.087Z,15.30
2018-12-05T03:00:53.731Z,14.50
2018-12-05T03:03:22.899Z,14.00
2018-12-05T03:05:52.769Z,13.67
2018-12-05T03:08:21.976Z,15.53
2018-12-05T03:10:54.117Z,15.67
2018-12-05T03:13:23.160Z,15.13
2018-12-05T03:15:52.193Z,14.03
2018-12-05T03:18:21.248Z,14.37
2018-12-05T03:20:50.422Z,13.93
2018-12-05T03:23:19.646Z,13.43
2018-12-05T03:25:49.387Z,12.53
2018-12-05T03:28:18.806Z,12.87
2018-12-05T03:30:48.633Z,13.20
2018-12-05T03:33:17.843Z,13.83
2018-12-05T03:35:46.998Z,13.17
2018-12-05T03:38:16.058Z,14.43
2018-12-05T03:40:45.231Z,14.00
2018-12-05T03:43:14.295Z,14.10
2018-12-05T03:45:43.362Z,13.93
2018-12-05T03:48:12.403Z,14.07
2018-12-05T03:50:41.550Z,14.77
2018-12-05T03:53:10.992Z,13.97
2018-12-05T03:55:40.397Z,13.30
2018-12-05T03:58:09.466Z,13.30
2018-12-05T04:00:39.228Z,14.23
2018-12-05T04:03:08.282Z,13.53
2018-12-05T04:05:37.384Z,13.80
2018-12-05T04:08:07.052Z,13.30
2018-12-05T04:10:36.276Z,13.73
2018-12-05T04:13:05.426Z,13.47
2018-12-05T04:15:34.575Z,14.67
2018-12-05T04:18:03.637Z,12.70
2018-12-05T04:20:32.725Z,13.83
2018-12-05T04:23:02.086Z,14.27
2018-12-05T04:25:31.140Z,13.87
2018-12-05T04:28:00.658Z,13.97
2018-12-05T04:30:29.707Z,13.63
2018-12-05T04:33:00.000Z,13.97
2018-12-05T04:35:29.138Z,14.00
2018-12-05T04:37:58.241Z,13.40
2018-12-05T04:40:28.684Z,14.03
2018-12-05T04:42:57.723Z,13.27
2018-12-05T04:45:26.758Z,13.20
2018-12-05T04:47:55.846Z,13.87
2018-12-05T04:50:25.797Z,13.60
2018-12-05T04:52:54.854Z,13.93
2018-12-05T04:55:24.070Z,13.07
2018-12-05T04:57:53.085Z,13.30
2018-12-05T05:00:22.410Z,12.80
2018-12-05T05:02:51.418Z,13.47
2018-12-05T05:05:20.518Z,13.27
2018-12-05T05:07:49.566Z,13.03
2018-12-05T05:10:18.575Z,11.50
2018-12-05T05:12:47.732Z,12.60
2018-12-05T05:15:17.015Z,12.53
2018-12-05T05:17:46.075Z,12.40
2018-12-05T05:20:15.278Z,12.40
2018-12-05T05:22:44.329Z,12.10
2018-12-05T05:25:13.826Z,12.63
2018-12-05T05:27:46.067Z,12.13
2018-12-05T05:30:14.912Z,12.33
2018-12-05T05:32:46.447Z,11.80
2018-12-05T05:35:15.569Z,12.93
2018-12-05T05:37:44.808Z,12.90
2018-12-05T05:40:14.321Z,12.60
2018-12-05T05:42:43.370Z,11.97
2018-12-05T05:45:12.643Z,12.70
2018-12-05T05:47:41.703Z,12.30
2018-12-05T05:50:11.628Z,11.73
2018-12-05T05:52:40.885Z,12.30
2018-12-05T05:55:10.053Z,12.53
2018-12-05T05:57:39.363Z,12.07
2018-12-05T06:00:09.733Z,12.47
2018-12-05T06:02:38.910Z,12.17
2018-12-05T06:05:08.018Z,12.50
2018-12-05T06:07:38.345Z,12.73
2018-12-05T06:10:09.109Z,11.77
2018-12-05T06:12:38.176Z,12.33
2018-12-05T06:15:08.960Z,11.53
2018-12-05T06:17:38.046Z,12.30
2018-12-05T06:20:07.354Z,11.73
2018-12-05T06:22:36.467Z,12.03
2018-12-05T06:25:06.654Z,12.07
2018-12-05T06:27:35.745Z,11.53
2018-12-05T06:30:05.939Z,12.43
2018-12-05T06:32:35.351Z,12.43
2018-12-05T06:35:04.713Z,12.03
2018-12-05T06:37:34.761Z,12.03
2018-12-05T06:40:04.174Z,12.07
2018-12-05T06:42:33.291Z,12.00
2018-12-05T06:45:02.315Z,12.17
2018-12-05T06:47:31.968Z,11.77
2018-12-05T06:50:01.047Z,12.07
2018-12-05T06:52:36.940Z,11.43
2018-12-05T06:55:07.003Z,12.67
2018-12-05T06:57:36.657Z,12.23
2018-12-05T07:00:08.387Z,12.30
2018-12-05T07:02:37.753Z,12.53
2018-12-05T07:05:07.403Z,12.57
2018-12-05T07:07:36.486Z,12.67
2018-12-05T07:10:06.245Z,12.43
2018-12-05T07:12:35.624Z,12.83
2018-12-05T07:15:05.024Z,16.37
2018-12-05T07:17:34.081Z,14.67
2018-12-05T07:20:03.384Z,16.50
2018-12-05T07:22:32.437Z,14.97
2018-12-05T07:25:01.718Z,13.23
2018-12-05T07:27:30.813Z,13.77
2018-12-05T07:29:59.908Z,12.77
2018-12-05T07:32:29.032Z,12.30
2018-12-05T07:34:58.233Z,13.07
2018-12-05T07:37:28.013Z,12.10
2018-12-05T07:39:57.521Z,12.27
2018-12-05T07:42:26.535Z,13.20
2018-12-05T07:44:56.146Z,12.70
2018-12-05T07:47:25.271Z,12.60
2018-12-05T07:49:54.395Z,11.40
2018-12-05T07:52:23.803Z,12.60
2018-12-05T07:54:52.981Z,12.23
2018-12-05T07:57:22.230Z,11.43
2018-12-05T07:59:51.740Z,11.73
2018-12-05T08:02:20.828Z,11.83
2018-12-05T08:04:51.291Z,11.50
2018-12-05T08:07:20.351Z,12.23
2018-12-05T08:09:50.206Z,11.27
2018-12-05T08:12:19.870Z,11.70
2018-12-05T08:14:49.016Z,11.13
2018-12-05T08:17:18.359Z,11.63
2018-12-05T08:19:48.301Z,12.17
2018-12-05T08:22:17.529Z,12.63
2018-12-05T08:24:46.602Z,11.80
2018-12-05T08:27:15.772Z,12.10
2018-12-05T08:29:51.759Z,11.90
2018-12-05T08:32:20.990Z,12.07
2018-12-05T08:34:50.023Z,11.90
2018-12-05T08:37:19.076Z,11.80
2018-12-05T08:39:48.188Z,12.13
2018-12-05T08:42:17.382Z,12.70
2018-12-05T08:44:46.466Z,11.73
2018-12-05T08:47:15.520Z,12.27
2018-12-05T08:49:44.602Z,12.33
2018-12-05T08:52:14.266Z,11.80
2018-12-05T08:54:43.365Z,12.30
2018-12-05T08:57:12.517Z,12.73
2018-12-05T08:59:41.858Z,12.00
2018-12-05T09:02:11.169Z,12.77
2018-12-05T09:04:40.362Z,12.47
2018-12-05T09:07:09.530Z,12.13
2018-12-05T09:09:39.181Z,13.03
2018-12-05T09:12:08.281Z,12.40
2018-12-05T09:14:37.546Z,12.70
2018-12-05T09:17:06.596Z,11.73
2018-12-05T09:19:35.756Z,12.37
2018-12-05T09:22:04.815Z,12.30
2018-12-05T09:24:33.878Z,12.30
2018-12-05T09:27:02.905Z,13.87
2018-12-05T09:29:31.987Z,13.17
2018-12-05T09:32:01.109Z,13.30
2018-12-05T09:34:30.657Z,13.67
2018-12-05T09:36:59.948Z,14.07
2018-12-05T09:39:29.009Z,12.90
2018-12-05T09:41:58.044Z,13.47
2018-12-05T09:44:27.222Z,13.47
2018-12-05T09:46:56.473Z,12.70
2018-12-05T09:49:25.527Z,13.17
2018-12-05T09:51:56.103Z,13.10
2018-12-05T09:54:25.857Z,12.93
2018-12-05T09:56:54.935Z,12.93
2018-12-05T09:59:24.383Z,13.23
2018-12-05T10:01:53.463Z,14.23
2018-12-05T10:04:23.131Z,12.33
2018-12-05T10:06:52.190Z,12.87
2018-12-05T10:09:21.374Z,11.97
2018-12-05T10:11:50.457Z,12.30
2018-12-05T10:14:19.509Z,12.50
2018-12-05T10:16:49.117Z,12.70
2018-12-05T10:19:18.177Z,12.37
2018-12-05T10:21:47.237Z,12.23
2018-12-05T10:24:16.330Z,12.17
2018-12-05T10:26:45.406Z,12.30
2018-12-05T10:29:14.491Z,12.20
2018-12-05T10:31:44.292Z,12.30
2018-12-05T10:34:13.443Z,11.80
2018-12-05T10:36:42.666Z,11.90
2018-12-05T10:39:11.801Z,11.70
2018-12-05T10:41:41.030Z,11.47
2018-12-05T10:44:10.334Z,11.03
2018-12-05T10:46:39.717Z,11.40
2018-12-05T10:49:08.849Z,11.63
2018-12-05T10:51:37.950Z,11.20
2018-12-05T10:54:07.125Z,11.00
2018-12-05T10:56:36.334Z,10.37
2018-12-05T10:59:05.670Z,10.27
2018-12-05T11:02:44.067Z,10.90
2018-12-05T11:05:18.727Z,9.67
2018-12-05T11:07:54.301Z,9.43
2018-12-05T11:10:28.931Z,10.10
2018-12-05T11:13:04.439Z,10.13
2018-12-05T11:15:38.852Z,8.93
2018-12-05T11:18:13.179Z,9.80
2018-12-05T11:20:47.641Z,9.47
2018-12-05T11:23:21.190Z,9.53
2018-12-05T11:25:50.953Z,9.60
2018-12-05T11:28:20.241Z,9.77
2018-12-05T11:30:49.323Z,11.03
2018-12-05T11:33:18.890Z,8.93
2018-12-05T11:35:48.046Z,8.90
2018-12-05T11:38:17.104Z,9.53
2018-12-05T11:40:46.399Z,8.80
2018-12-05T11:43:15.549Z,9.23
2018-12-05T11:45:44.681Z,8.37
2018-12-05T11:48:13.996Z,9.00
2018-12-05T11:50:43.041Z,8.60
2018-12-05T11:53:12.140Z,8.27
2018-12-05T11:55:41.228Z,8.47
2018-12-05T11:58:10.489Z,7.80
2018-12-05T12:00:39.652Z,8.30
2018-12-05T12:03:08.708Z,8.30
2018-12-05T12:05:38.188Z,8.53
2018-12-05T12:08:07.353Z,8.00
2018-12-05T12:10:40.398Z,7.83
2018-12-05T12:13:10.207Z,7.03
2018-12-05T12:15:39.430Z,7.90
2018-12-05T12:18:08.563Z,7.20
2018-12-05T12:20:37.779Z,7.77
2018-12-05T12:23:07.175Z,8.83
2018-12-05T12:25:36.222Z,8.13
2018-12-05T12:28:05.309Z,8.03
2018-12-05T12:30:34.337Z,7.40
2018-12-05T12:33:03.506Z,7.63
2018-12-05T12:35:33.156Z,7.93
2018-12-05T12:38:02.221Z,7.90
2018-12-05T12:40:31.530Z,7.40
2018-12-05T12:43:00.866Z,8.43
2018-12-05T12:45:30.035Z,8.67
2018-12-05T12:47:59.219Z,8.63
2018-12-05T12:50:28.558Z,8.90
2018-12-05T12:52:57.640Z,7.40
2018-12-05T12:55:27.047Z,7.20
2018-12-05T12:57:56.196Z,8.00
2018-12-05T13:00:25.272Z,7.47
2018-12-05T13:02:54.333Z,9.03
2018-12-05T13:05:23.405Z,7.73
2018-12-05T13:07:52.737Z,7.07
2018-12-05T13:10:21.937Z,7.17
2018-12-05T13:12:54.222Z,7.13
2018-12-05T13:15:23.565Z,7.23
2018-12-05T13:17:52.868Z,7.17
2018-12-05T13:20:21.965Z,7.37
2018-12-05T13:22:51.079Z,7.03
2018-12-05T13:25:20.480Z,7.33
2018-12-05T13:27:49.857Z,7.57
2018-12-05T13:30:19.323Z,7.03
2018-12-05T13:32:48.656Z,6.77
2018-12-05T13:35:17.752Z,7.40
2018-12-05T13:37:47.130Z,7.33
2018-12-05T13:40:16.884Z,7.13
2018-12-05T13:42:45.972Z,7.40
2018-12-05T13:45:15.073Z,6.63
2018-12-05T13:47:44.305Z,6.97
2018-12-05T13:50:13.585Z,7.30
2018-12-05T13:52:42.666Z,7.20
2018-12-05T13:55:11.915Z,7.90
2018-12-05T13:57:41.046Z,7.23
2018-12-05T14:00:10.712Z,6.70
2018-12-05T14:02:39.843Z,7.20
2018-12-05T14:05:09.135Z,8.50
2018-12-05T14:07:38.328Z,6.93
2018-12-05T14:10:07.498Z,6.50
2018-12-05T14:12:40.132Z,6.60
2018-12-05T14:15:10.749Z,7.20
2018-12-05T14:17:39.802Z,6.70
2018-12-05T14:20:09.224Z,7.20
2018-12-05T14:22:39.003Z,8.17
2018-12-05T14:25:08.616Z,7.93
2018-12-05T14:27:37.657Z,8.23
2018-12-05T14:30:08.146Z,7.60
2018-12-05T14:32:37.435Z,7.47
2018-12-05T14:35:06.747Z,7.20
2018-12-05T14:37:35.812Z,6.90
2018-12-05T14:40:05.839Z,7.10
2018-12-05T14:42:34.957Z,6.53
2018-12-05T14:45:04.642Z,6.20
2018-12-05T14:47:33.731Z,6.50
2018-12-05T14:50:02.818Z,5.70
2018-12-05T14:52:31.872Z,5.93
2018-12-05T14:55:00.982Z,5.93
2018-12-05T14:57:30.854Z,6.17
2018-12-05T15:00:00.119Z,6.30
2018-12-05T15:02:29.285Z,5.87
2018-12-05T15:04:59.290Z,6.17
2018-12-05T15:07:28.377Z,5.63
2018-12-05T15:09:57.722Z,5.93
2018-12-05T15:12:26.822Z,5.60
2018-12-05T15:14:56.053Z,5.20
2018-12-05T15:17:25.260Z,5.80
2018-12-05T15:19:54.388Z,5.57
2018-12-05T15:22:23.459Z,5.53
2018-12-05T15:24:53.173Z,4.93
2018-12-05T15:27:22.242Z,5.37
2018-12-05T15:29:51.488Z,4.87
2018-12-05T15:32:20.657Z,5.00
2018-12-05T15:34:49.866Z,5.43
2018-12-05T15:37:18.913Z,5.43
2018-12-05T15:39:47.990Z,5.73
2018-12-05T15:42:18.136Z,5.93
2018-12-05T15:44:47.233Z,5.27
2018-12-05T15:47:16.354Z,6.40
2018-12-05T15:49:45.630Z,5.27
2018-12-05T15:52:14.685Z,5.30
2018-12-05T15:54:43.758Z,5.70
2018-12-05T15:57:12.895Z,5.50
2018-12-05T15:59:42.145Z,7.33
2018-12-05T16:02:11.286Z,6.47
2018-12-05T16:04:40.666Z,6.10
2018-12-05T16:07:09.719Z,5.33
2018-12-05T16:09:38.801Z,5.97
2018-12-05T16:12:07.837Z,5.80
2018-12-05T16:14:38.624Z,5.90
2018-12-05T16:17:07.813Z,6.40
2018-12-05T16:19:36.898Z,5.70
2018-12-05T16:22:06.031Z,6.03
2018-12-05T16:24:35.123Z,5.90
2018-12-05T16:27:04.209Z,5.70
2018-12-05T16:29:33.450Z,5.60
2018-12-05T16:32:02.510Z,5.40
2018-12-05T16:34:31.635Z,5.27
2018-12-05T16:37:01.117Z,5.50
2018-12-05T16:39:30.469Z,5.40
2018-12-05T16:41:59.538Z,6.03
2018-12-05T16:44:28.862Z,6.43
2018-12-05T16:46:58.009Z,6.23
2018-12-05T16:49:27.361Z,6.10
2018-12-05T16:51:56.437Z,6.13
2018-12-05T16:54:26.029Z,7.37
2018-12-05T16:56:55.744Z,7.00
2018-12-05T16:59:24.841Z,12.93
2018-12-05T17:01:54.107Z,11.20
2018-12-05T17:04:23.165Z,7.70
2018-12-05T17:06:52.482Z,8.00
2018-12-05T17:09:26.089Z,7.63
2018-12-05T17:11:52.822Z,6.53
2018-12-05T17:14:22.910Z,6.70
2018-12-05T17:16:52.780Z,6.77
2018-12-05T17:19:21.865Z,7.00
2018-12-05T17:21:50.972Z,7.50
2018-12-05T17:24:20.366Z,7.13
2018-12-05T17:26:49.457Z,7.93
2018-12-05T17:29:18.809Z,7.30
2018-12-05T17:31:47.902Z,7.50
2018-12-05T17:34:17.086Z,8.00
2018-12-05T17:36:46.272Z,8.07
2018-12-05T17:39:15.382Z,7.30
2018-12-05T17:41:44.610Z,7.63
2018-12-05T17:44:13.653Z,7.20
2018-12-05T17:46:43.136Z,7.53
2018-12-05T17:49:12.214Z,7.13
2018-12-05T17:51:42.203Z,8.13
2018-12-05T17:54:14.842Z,7.43
2018-12-05T17:56:42.596Z,7.70
2018-12-05T17:59:11.664Z,7.50
2018-12-05T18:01:41.027Z,7.63
2018-12-05T18:04:10.080Z,7.53
2018-12-05T18:06:39.332Z,7.77
2018-12-05T18:09:09.239Z,7.43
2018-12-05T18:11:39.327Z,7.30
2018-12-05T18:14:08.408Z,6.80
2018-12-05T18:16:37.610Z,6.90
2018-12-05T18:19:06.780Z,6.70
2018-12-05T18:21:35.997Z,7.07
2018-12-05T18:24:05.200Z,7.27
2018-12-05T18:26:34.546Z,7.23
2018-12-05T18:29:04.181Z,7.23
2018-12-05T18:31:33.508Z,6.87
2018-12-05T18:34:03.412Z,6.50
2018-12-05T18:36:32.792Z,7.33
2018-12-05T18:39:01.926Z,6.93
2018-12-05T18:41:31.069Z,6.60
2018-12-05T18:44:00.263Z,6.47
2018-12-05T18:46:30.218Z,6.00
2018-12-05T18:48:59.502Z,6.63
2018-12-05T18:51:28.701Z,6.37
2018-12-05T18:53:58.646Z,6.30
2018-12-05T18:56:27.781Z,6.10
2018-12-05T18:58:56.940Z,6.20
2018-12-05T19:01:26.208Z,6.10
2018-12-05T19:03:55.392Z,6.40
2018-12-05T19:06:24.738Z,6.30
2018-12-05T19:08:53.872Z,5.83
2018-12-05T19:11:23.051Z,6.67
2018-12-05T19:13:57.675Z,6.47
2018-12-05T19:16:26.811Z,5.80
2018-12-05T19:18:55.946Z,6.10
2018-12-05T19:21:29.201Z,5.70
2018-12-05T19:23:58.600Z,6.23
2018-12-05T19:26:27.930Z,6.00
2018-12-05T19:28:57.553Z,6.43
2018-12-05T19:38:26.568Z,5.90
2018-12-05T19:40:55.785Z,5.90
2018-12-05T19:43:24.916Z,5.47
2018-12-05T19:45:54.648Z,6.03
2018-12-05T19:48:24.009Z,6.43
2018-12-05T19:50:53.182Z,6.30
2018-12-05T19:53:22.400Z,5.53
2018-12-05T19:55:51.504Z,6.30
2018-12-05T19:58:20.897Z,6.30
2018-12-05T20:00:50.012Z,6.30
2018-12-05T20:03:19.224Z,5.90
2018-12-05T20:05:48.341Z,6.43
2018-12-05T20:08:17.798Z,6.40
2018-12-05T20:10:46.887Z,6.63
2018-12-05T20:13:16.223Z,6.20
2018-12-05T20:15:45.394Z,6.40
2018-12-05T20:18:14.667Z,5.87
2018-12-05T20:20:43.770Z,5.43
2018-12-05T20:23:13.084Z,6.07
2018-12-05T20:25:42.240Z,5.63
2018-12-05T20:28:11.395Z,5.93
2018-12-05T20:30:40.997Z,5.60
2018-12-05T20:33:10.205Z,6.00
2018-12-05T20:35:39.692Z,6.00
2018-12-05T20:38:09.076Z,6.20
2018-12-05T20:40:38.790Z,5.83
2018-12-05T20:43:08.030Z,5.67
2018-12-05T20:45:37.747Z,5.67
2018-12-05T20:48:07.209Z,5.33
2018-12-05T20:50:36.621Z,4.93
2018-12-05T20:53:05.839Z,5.27
2018-12-05T20:55:34.943Z,5.40
2018-12-05T20:58:06.996Z,5.47
2018-12-05T21:00:36.357Z,5.07
2018-12-05T21:03:05.441Z,5.23
2018-12-05T21:05:34.710Z,5.00
2018-12-05T21:08:03.847Z,5.43
2018-12-05T21:10:34.177Z,5.30
2018-12-05T21:13:03.621Z,5.55
2018-12-05T21:15:33.085Z,5.27
2018-12-05T21:18:03.415Z,5.20
2018-12-05T21:20:32.654Z,4.97
2018-12-05T21:23:01.702Z,4.87
2018-12-05T21:25:30.776Z,5.30
2018-12-05T21:28:00.356Z,5.10
2018-12-05T21:30:29.522Z,4.77
2018-12-05T21:32:58.706Z,5.10
2018-12-05T21:35:27.912Z,4.80
2018-12-05T21:37:57.193Z,4.83
2018-12-05T21:40:26.724Z,5.07
2018-12-05T21:42:55.927Z,4.97
2018-12-05T21:45:25.480Z,4.90
2018-12-05T21:47:54.585Z,4.93
2018-12-05T21:50:23.751Z,4.73
2018-12-05T21:52:52.833Z,5.20
2018-12-05T21:55:22.094Z,5.20
2018-12-05T21:57:51.184Z,5.10
2018-12-05T22:00:20.235Z,4.90
2018-12-05T22:02:49.412Z,5.15
2018-12-05T22:05:18.994Z,5.10
2018-12-05T22:07:48.856Z,4.80
2018-12-05T22:10:18.243Z,5.00
2018-12-05T22:12:47.307Z,4.40
2018-12-05T22:15:16.768Z,5.23
2018-12-05T22:17:46.147Z,4.50
2018-12-05T22:20:15.307Z,5.23
2018-12-05T22:22:44.497Z,5.20
2018-12-05T22:25:13.582Z,5.07
2018-12-05T22:27:42.736Z,4.80
2018-12-05T22:30:12.122Z,5.00
2018-12-05T22:32:41.173Z,5.10
2018-12-05T22:35:10.576Z,5.03
2018-12-05T22:37:39.653Z,5.33
2018-12-05T22:40:09.742Z,5.37
2018-12-05T22:42:39.464Z,5.67
2018-12-05T22:45:08.891Z,6.23
2018-12-05T22:47:38.078Z,5.80
2018-12-05T22:50:08.218Z,6.20
2018-12-05T22:52:37.468Z,5.40
2018-12-05T22:55:07.038Z,5.97
2018-12-05T22:57:36.260Z,5.90
2018-12-05T23:00:10.952Z,6.17
2018-12-05T23:02:40.861Z,6.63
2018-12-05T23:05:10.072Z,6.37
2018-12-05T23:07:39.422Z,6.47
2018-12-05T23:10:08.611Z,6.10
2018-12-05T23:12:37.702Z,6.60
2018-12-05T23:15:08.094Z,6.27
2018-12-05T23:17:37.270Z,6.50
2018-12-05T23:20:07.189Z,6.27
2018-12-05T23:22:36.521Z,6.67
2018-12-05T23:25:06.004Z,6.60
2018-12-05T23:27:35.231Z,6.53
2018-12-05T23:30:04.841Z,6.70
2018-12-05T23:32:34.085Z,6.90
2018-12-05T23:35:03.156Z,7.20
2018-12-05T23:37:32.240Z,6.90
2018-12-05T23:40:01.323Z,7.30
2018-12-05T23:42:30.928Z,7.03
2018-12-05T23:45:00.028Z,7.37
2018-12-05T23:47:29.121Z,7.97
2018-12-05T23:49:58.435Z,7.63
2018-12-05T23:52:27.512Z,8.17
2018-12-05T23:54:56.563Z,8.17
2018-12-05T23:57:25.748Z,7.90
2018-12-05T23:59:54.805Z,7.97
